sensor_id;sensor_type;location;lat;lon;timestamp;P1;durP1;ratioP1;P2;durP2;ratioP2
23812;SDS011;12087;45.190;5.688;2023-04-03T00:04:38;1.55;;;1.25;;
23812;SDS011;12087;45.190;5.688;2023-04-03T00:10:01;1.83;;;1.33;;
23812;SDS011;12087;45.190;5.688;2023-04-03T00:15:23;1.20;;;1.10;;
23812;SDS011;12087;45.190;5.688;2023-04-03T00:20:47;1.73;;;1.33;;
23812;SDS011;12087;45.190;5.688;2023-04-03T00:26:09;1.67;;;1.50;;
23812;SDS011;12087;45.190;5.688;2023-04-03T00:31:32;1.30;;;1.20;;
23812;SDS011;12087;45.190;5.688;2023-04-03T00:36:55;2.30;;;1.60;;
23812;SDS011;12087;45.190;5.688;2023-04-03T00:42:19;1.38;;;1.27;;
23812;SDS011;12087;45.190;5.688;2023-04-03T00:47:41;2.80;;;1.40;;
23812;SDS011;12087;45.190;5.688;2023-04-03T00:53:05;5.07;;;1.38;;
23812;SDS011;12087;45.190;5.688;2023-04-03T00:58:31;2.28;;;1.50;;
23812;SDS011;12087;45.190;5.688;2023-04-03T01:03:58;1.92;;;1.30;;
23812;SDS011;12087;45.190;5.688;2023-04-03T01:09:24;3.95;;;1.30;;
23812;SDS011;12087;45.190;5.688;2023-04-03T01:14:48;1.60;;;1.50;;
23812;SDS011;12087;45.190;5.688;2023-04-03T01:26:17;2.63;;;1.40;;
23812;SDS011;12087;45.190;5.688;2023-04-03T01:31:49;2.00;;;1.50;;
23812;SDS011;12087;45.190;5.688;2023-04-03T01:37:12;1.70;;;1.40;;
23812;SDS011;12087;45.190;5.688;2023-04-03T01:42:34;1.55;;;1.45;;
23812;SDS011;12087;45.190;5.688;2023-04-03T01:47:58;3.33;;;1.42;;
23812;SDS011;12087;45.190;5.688;2023-04-03T01:53:20;2.00;;;1.60;;
23812;SDS011;12087;45.190;5.688;2023-04-03T01:58:42;2.58;;;1.33;;
23812;SDS011;12087;45.190;5.688;2023-04-03T02:04:06;3.90;;;1.50;;
23812;SDS011;12087;45.190;5.688;2023-04-03T02:09:28;3.45;;;1.60;;
23812;SDS011;12087;45.190;5.688;2023-04-03T02:14:50;1.85;;;1.60;;
23812;SDS011;12087;45.190;5.688;2023-04-03T02:20:14;1.80;;;1.60;;
23812;SDS011;12087;45.190;5.688;2023-04-03T02:25:36;1.95;;;1.42;;
23812;SDS011;12087;45.190;5.688;2023-04-03T02:30:58;3.08;;;1.80;;
23812;SDS011;12087;45.190;5.688;2023-04-03T02:36:22;2.72;;;1.48;;
23812;SDS011;12087;45.190;5.688;2023-04-03T02:41:44;2.88;;;1.90;;
23812;SDS011;12087;45.190;5.688;2023-04-03T02:47:07;3.70;;;1.70;;
23812;SDS011;12087;45.190;5.688;2023-04-03T02:52:30;2.35;;;1.92;;
23812;SDS011;12087;45.190;5.688;2023-04-03T02:57:53;1.92;;;1.73;;
23812;SDS011;12087;45.190;5.688;2023-04-03T03:03:15;1.50;;;1.40;;
23812;SDS011;12087;45.190;5.688;2023-04-03T03:08:38;2.58;;;1.90;;
23812;SDS011;12087;45.190;5.688;2023-04-03T03:14:01;2.45;;;2.10;;
23812;SDS011;12087;45.190;5.688;2023-04-03T03:19:23;2.28;;;2.00;;
23812;SDS011;12087;45.190;5.688;2023-04-03T03:24:47;1.98;;;1.80;;
23812;SDS011;12087;45.190;5.688;2023-04-03T03:30:09;2.40;;;2.00;;
23812;SDS011;12087;45.190;5.688;2023-04-03T03:35:32;2.00;;;1.90;;
23812;SDS011;12087;45.190;5.688;2023-04-03T03:40:57;2.15;;;1.83;;
23812;SDS011;12087;45.190;5.688;2023-04-03T03:46:19;2.55;;;2.22;;
23812;SDS011;12087;45.190;5.688;2023-04-03T03:51:42;2.60;;;2.38;;
23812;SDS011;12087;45.190;5.688;2023-04-03T03:57:05;4.40;;;3.20;;
23812;SDS011;12087;45.190;5.688;2023-04-03T04:02:27;3.35;;;2.90;;
23812;SDS011;12087;45.190;5.688;2023-04-03T04:07:50;3.65;;;3.35;;
23812;SDS011;12087;45.190;5.688;2023-04-03T04:13:13;5.63;;;4.00;;
23812;SDS011;12087;45.190;5.688;2023-04-03T04:18:36;7.55;;;4.30;;
23812;SDS011;12087;45.190;5.688;2023-04-03T04:23:58;7.13;;;4.25;;
23812;SDS011;12087;45.190;5.688;2023-04-03T04:29:21;5.35;;;3.92;;
23812;SDS011;12087;45.190;5.688;2023-04-03T04:34:43;5.32;;;4.03;;
23812;SDS011;12087;45.190;5.688;2023-04-03T04:40:06;5.18;;;4.53;;
23812;SDS011;12087;45.190;5.688;2023-04-03T04:45:31;5.63;;;4.85;;
23812;SDS011;12087;45.190;5.688;2023-04-03T04:50:53;7.75;;;4.68;;
23812;SDS011;12087;45.190;5.688;2023-04-03T04:56:15;5.97;;;5.00;;
23812;SDS011;12087;45.190;5.688;2023-04-03T05:01:39;6.10;;;5.50;;
23812;SDS011;12087;45.190;5.688;2023-04-03T05:07:01;7.80;;;5.53;;
23812;SDS011;12087;45.190;5.688;2023-04-03T05:12:23;6.57;;;5.10;;
23812;SDS011;12087;45.190;5.688;2023-04-03T05:17:47;5.55;;;5.05;;
23812;SDS011;12087;45.190;5.688;2023-04-03T05:23:09;5.45;;;4.95;;
23812;SDS011;12087;45.190;5.688;2023-04-03T05:28:31;5.78;;;5.28;;
23812;SDS011;12087;45.190;5.688;2023-04-03T05:33:55;6.03;;;5.40;;
23812;SDS011;12087;45.190;5.688;2023-04-03T05:39:17;7.03;;;5.70;;
23812;SDS011;12087;45.190;5.688;2023-04-03T05:44:39;6.50;;;5.90;;
23812;SDS011;12087;45.190;5.688;2023-04-03T05:50:03;6.50;;;5.50;;
23812;SDS011;12087;45.190;5.688;2023-04-03T05:55:26;6.13;;;5.03;;
23812;SDS011;12087;45.190;5.688;2023-04-03T06:00:48;7.70;;;6.07;;
23812;SDS011;12087;45.190;5.688;2023-04-03T06:06:13;7.28;;;5.60;;
23812;SDS011;12087;45.190;5.688;2023-04-03T06:11:36;8.35;;;5.57;;
23812;SDS011;12087;45.190;5.688;2023-04-03T06:16:58;7.53;;;6.35;;
23812;SDS011;12087;45.190;5.688;2023-04-03T06:22:21;8.40;;;5.45;;
23812;SDS011;12087;45.190;5.688;2023-04-03T06:27:45;6.75;;;5.72;;
23812;SDS011;12087;45.190;5.688;2023-04-03T06:33:08;5.53;;;5.03;;
23812;SDS011;12087;45.190;5.688;2023-04-03T06:38:32;7.97;;;6.03;;
23812;SDS011;12087;45.190;5.688;2023-04-03T06:43:54;6.18;;;5.63;;
23812;SDS011;12087;45.190;5.688;2023-04-03T06:49:18;6.20;;;5.60;;
23812;SDS011;12087;45.190;5.688;2023-04-03T06:54:41;5.70;;;5.20;;
23812;SDS011;12087;45.190;5.688;2023-04-03T07:00:04;6.13;;;4.65;;
23812;SDS011;12087;45.190;5.688;2023-04-03T07:05:29;8.20;;;4.47;;
23812;SDS011;12087;45.190;5.688;2023-04-03T07:10:52;5.82;;;4.38;;
23812;SDS011;12087;45.190;5.688;2023-04-03T07:16:15;4.47;;;4.05;;
23812;SDS011;12087;45.190;5.688;2023-04-03T07:21:37;4.40;;;3.95;;
23812;SDS011;12087;45.190;5.688;2023-04-03T07:27:02;7.43;;;5.32;;
23812;SDS011;12087;45.190;5.688;2023-04-03T07:32:24;4.50;;;3.78;;
23812;SDS011;12087;45.190;5.688;2023-04-03T07:37:46;7.60;;;3.75;;
23812;SDS011;12087;45.190;5.688;2023-04-03T07:43:10;3.70;;;3.40;;
23812;SDS011;12087;45.190;5.688;2023-04-03T07:48:32;3.60;;;3.30;;
23812;SDS011;12087;45.190;5.688;2023-04-03T07:53:55;3.90;;;3.20;;
23812;SDS011;12087;45.190;5.688;2023-04-03T07:59:19;6.95;;;4.13;;
23812;SDS011;12087;45.190;5.688;2023-04-03T08:04:41;8.32;;;4.78;;
23812;SDS011;12087;45.190;5.688;2023-04-03T08:10:03;5.90;;;5.03;;
23812;SDS011;12087;45.190;5.688;2023-04-03T08:15:27;6.10;;;5.47;;
23812;SDS011;12087;45.190;5.688;2023-04-03T08:20:51;5.82;;;5.32;;
23812;SDS011;12087;45.190;5.688;2023-04-03T08:26:14;6.00;;;5.30;;
23812;SDS011;12087;45.190;5.688;2023-04-03T08:31:39;6.18;;;4.70;;
23812;SDS011;12087;45.190;5.688;2023-04-03T08:37:01;5.40;;;4.90;;
23812;SDS011;12087;45.190;5.688;2023-04-03T08:42:28;6.85;;;6.05;;
23812;SDS011;12087;45.190;5.688;2023-04-03T08:48:00;9.95;;;6.20;;
23812;SDS011;12087;45.190;5.688;2023-04-03T08:53:28;6.50;;;5.93;;
23812;SDS011;12087;45.190;5.688;2023-04-03T08:58:55;7.40;;;6.70;;
23812;SDS011;12087;45.190;5.688;2023-04-03T09:04:20;9.98;;;6.97;;
23812;SDS011;12087;45.190;5.688;2023-04-03T09:09:43;10.27;;;7.05;;
23812;SDS011;12087;45.190;5.688;2023-04-03T09:15:10;13.98;;;8.40;;
23812;SDS011;12087;45.190;5.688;2023-04-03T09:20:41;22.23;;;7.80;;
23812;SDS011;12087;45.190;5.688;2023-04-03T09:26:08;14.88;;;7.22;;
23812;SDS011;12087;45.190;5.688;2023-04-03T09:31:36;16.02;;;6.80;;
23812;SDS011;12087;45.190;5.688;2023-04-03T09:37:01;16.05;;;5.43;;
23812;SDS011;12087;45.190;5.688;2023-04-03T09:42:26;5.65;;;4.25;;
23812;SDS011;12087;45.190;5.688;2023-04-03T09:47:50;8.23;;;4.80;;
23812;SDS011;12087;45.190;5.688;2023-04-03T09:53:30;7.05;;;4.68;;
23812;SDS011;12087;45.190;5.688;2023-04-03T09:59:12;6.40;;;4.35;;
23812;SDS011;12087;45.190;5.688;2023-04-03T10:04:37;3.55;;;3.25;;
23812;SDS011;12087;45.190;5.688;2023-04-03T10:10:14;3.10;;;2.80;;
23812;SDS011;12087;45.190;5.688;2023-04-03T10:15:41;2.40;;;2.20;;
23812;SDS011;12087;45.190;5.688;2023-04-03T10:21:08;1.70;;;1.60;;
23812;SDS011;12087;45.190;5.688;2023-04-03T10:26:39;2.87;;;1.37;;
23812;SDS011;12087;45.190;5.688;2023-04-03T10:32:11;1.52;;;1.42;;
23812;SDS011;12087;45.190;5.688;2023-04-03T10:37:48;1.70;;;1.60;;
23812;SDS011;12087;45.190;5.688;2023-04-03T10:43:20;2.42;;;1.65;;
23812;SDS011;12087;45.190;5.688;2023-04-03T10:48:54;3.17;;;1.88;;
23812;SDS011;12087;45.190;5.688;2023-04-03T10:54:26;3.13;;;2.10;;
23812;SDS011;12087;45.190;5.688;2023-04-03T10:59:58;2.92;;;1.92;;
23812;SDS011;12087;45.190;5.688;2023-04-03T11:05:26;2.80;;;2.10;;
23812;SDS011;12087;45.190;5.688;2023-04-03T11:10:53;2.72;;;1.77;;
23812;SDS011;12087;45.190;5.688;2023-04-03T11:16:21;2.35;;;1.90;;
23812;SDS011;12087;45.190;5.688;2023-04-03T11:21:48;1.63;;;1.50;;
23812;SDS011;12087;45.190;5.688;2023-04-03T11:27:17;2.10;;;1.70;;
23812;SDS011;12087;45.190;5.688;2023-04-03T11:32:57;1.73;;;1.52;;
23812;SDS011;12087;45.190;5.688;2023-04-03T11:38:41;5.68;;;1.70;;
23812;SDS011;12087;45.190;5.688;2023-04-03T11:44:05;1.92;;;1.38;;
23812;SDS011;12087;45.190;5.688;2023-04-03T11:49:54;1.20;;;1.10;;
23812;SDS011;12087;45.190;5.688;2023-04-03T11:55:42;4.90;;;1.27;;
23812;SDS011;12087;45.190;5.688;2023-04-03T12:01:08;1.35;;;1.15;;
23812;SDS011;12087;45.190;5.688;2023-04-03T12:12:34;3.85;;;1.33;;
23812;SDS011;12087;45.190;5.688;2023-04-03T12:17:58;1.20;;;1.10;;
23812;SDS011;12087;45.190;5.688;2023-04-03T12:23:26;3.00;;;1.42;;
23812;SDS011;12087;45.190;5.688;2023-04-03T12:28:53;2.20;;;1.88;;
23812;SDS011;12087;45.190;5.688;2023-04-03T12:34:21;2.88;;;1.52;;
23812;SDS011;12087;45.190;5.688;2023-04-03T12:39:54;2.05;;;1.50;;
23812;SDS011;12087;45.190;5.688;2023-04-03T12:45:24;2.55;;;1.67;;
23812;SDS011;12087;45.190;5.688;2023-04-03T12:50:47;5.05;;;1.70;;
23812;SDS011;12087;45.190;5.688;2023-04-03T12:56:22;2.05;;;1.70;;
23812;SDS011;12087;45.190;5.688;2023-04-03T13:01:52;2.00;;;1.80;;
23812;SDS011;12087;45.190;5.688;2023-04-03T13:07:20;3.72;;;2.47;;
23812;SDS011;12087;45.190;5.688;2023-04-03T13:12:47;2.78;;;2.50;;
23812;SDS011;12087;45.190;5.688;2023-04-03T13:23:53;3.65;;;2.80;;
23812;SDS011;12087;45.190;5.688;2023-04-03T13:29:21;10.48;;;3.20;;
23812;SDS011;12087;45.190;5.688;2023-04-03T13:34:46;3.15;;;2.83;;
23812;SDS011;12087;45.190;5.688;2023-04-03T13:40:10;4.78;;;2.97;;
23812;SDS011;12087;45.190;5.688;2023-04-03T13:45:35;2.80;;;2.58;;
23812;SDS011;12087;45.190;5.688;2023-04-03T13:50:58;2.70;;;2.50;;
23812;SDS011;12087;45.190;5.688;2023-04-03T13:56:27;3.70;;;2.85;;
23812;SDS011;12087;45.190;5.688;2023-04-03T14:07:28;2.83;;;2.47;;
23812;SDS011;12087;45.190;5.688;2023-04-03T14:12:51;3.85;;;2.97;;
23812;SDS011;12087;45.190;5.688;2023-04-03T14:18:16;2.88;;;2.55;;
23812;SDS011;12087;45.190;5.688;2023-04-03T14:23:40;6.90;;;2.50;;
23812;SDS011;12087;45.190;5.688;2023-04-03T14:29:02;3.40;;;2.72;;
23812;SDS011;12087;45.190;5.688;2023-04-03T14:34:26;2.92;;;2.53;;
23812;SDS011;12087;45.190;5.688;2023-04-03T14:39:49;3.70;;;2.58;;
23812;SDS011;12087;45.190;5.688;2023-04-03T14:45:13;5.07;;;2.30;;
23812;SDS011;12087;45.190;5.688;2023-04-03T14:50:37;3.40;;;2.50;;
23812;SDS011;12087;45.190;5.688;2023-04-03T14:55:59;3.63;;;2.92;;
23812;SDS011;12087;45.190;5.688;2023-04-03T15:01:21;3.28;;;2.60;;
23812;SDS011;12087;45.190;5.688;2023-04-03T15:06:45;3.70;;;3.08;;
23812;SDS011;12087;45.190;5.688;2023-04-03T15:12:09;3.10;;;2.60;;
23812;SDS011;12087;45.190;5.688;2023-04-03T15:17:31;2.97;;;2.67;;
23812;SDS011;12087;45.190;5.688;2023-04-03T15:22:56;3.92;;;2.90;;
23812;SDS011;12087;45.190;5.688;2023-04-03T15:28:22;4.05;;;2.60;;
23812;SDS011;12087;45.190;5.688;2023-04-03T15:33:49;3.92;;;3.03;;
23812;SDS011;12087;45.190;5.688;2023-04-03T15:39:12;2.38;;;2.17;;
23812;SDS011;12087;45.190;5.688;2023-04-03T15:44:36;9.25;;;2.35;;
23812;SDS011;12087;45.190;5.688;2023-04-03T15:49:58;5.85;;;2.53;;
23812;SDS011;12087;45.190;5.688;2023-04-03T15:55:23;4.07;;;2.15;;
23812;SDS011;12087;45.190;5.688;2023-04-03T16:00:46;3.85;;;2.85;;
23812;SDS011;12087;45.190;5.688;2023-04-03T16:06:09;5.80;;;3.88;;
23812;SDS011;12087;45.190;5.688;2023-04-03T16:11:33;8.85;;;3.85;;
23812;SDS011;12087;45.190;5.688;2023-04-03T16:16:57;4.97;;;2.92;;
23812;SDS011;12087;45.190;5.688;2023-04-03T16:22:20;4.35;;;3.30;;
23812;SDS011;12087;45.190;5.688;2023-04-03T16:27:46;2.75;;;2.20;;
23812;SDS011;12087;45.190;5.688;2023-04-03T16:33:08;4.28;;;2.42;;
23812;SDS011;12087;45.190;5.688;2023-04-03T16:38:31;3.95;;;2.75;;
23812;SDS011;12087;45.190;5.688;2023-04-03T16:43:55;9.80;;;2.50;;
23812;SDS011;12087;45.190;5.688;2023-04-03T16:49:17;3.55;;;2.20;;
23812;SDS011;12087;45.190;5.688;2023-04-03T16:54:39;4.75;;;2.88;;
23812;SDS011;12087;45.190;5.688;2023-04-03T17:00:04;2.50;;;2.20;;
23812;SDS011;12087;45.190;5.688;2023-04-03T17:05:28;3.20;;;2.42;;
23812;SDS011;12087;45.190;5.688;2023-04-03T17:10:50;5.32;;;2.80;;
23812;SDS011;12087;45.190;5.688;2023-04-03T17:16:15;6.05;;;2.60;;
23812;SDS011;12087;45.190;5.688;2023-04-03T17:21:37;3.58;;;2.70;;
23812;SDS011;12087;45.190;5.688;2023-04-03T17:27:00;3.58;;;2.38;;
23812;SDS011;12087;45.190;5.688;2023-04-03T17:32:24;7.30;;;2.80;;
23812;SDS011;12087;45.190;5.688;2023-04-03T17:37:47;3.33;;;2.80;;
23812;SDS011;12087;45.190;5.688;2023-04-03T17:43:09;2.40;;;2.20;;
23812;SDS011;12087;45.190;5.688;2023-04-03T17:53:57;2.60;;;2.00;;
23812;SDS011;12087;45.190;5.688;2023-04-03T17:59:19;2.53;;;2.30;;
23812;SDS011;12087;45.190;5.688;2023-04-03T18:04:43;2.53;;;2.28;;
23812;SDS011;12087;45.190;5.688;2023-04-03T18:10:05;5.68;;;2.35;;
23812;SDS011;12087;45.190;5.688;2023-04-03T18:15:28;5.68;;;2.80;;
23812;SDS011;12087;45.190;5.688;2023-04-03T18:20:53;2.65;;;2.38;;
23812;SDS011;12087;45.190;5.688;2023-04-03T18:26:15;6.07;;;2.60;;
23812;SDS011;12087;45.190;5.688;2023-04-03T18:31:42;2.85;;;2.40;;
23812;SDS011;12087;45.190;5.688;2023-04-03T18:37:09;3.65;;;2.83;;
23812;SDS011;12087;45.190;5.688;2023-04-03T18:42:31;5.40;;;2.35;;
23812;SDS011;12087;45.190;5.688;2023-04-03T18:47:54;3.13;;;2.30;;
23812;SDS011;12087;45.190;5.688;2023-04-03T18:53:18;7.00;;;4.10;;
23812;SDS011;12087;45.190;5.688;2023-04-03T18:58:41;5.50;;;4.15;;
23812;SDS011;12087;45.190;5.688;2023-04-03T19:04:03;5.82;;;3.33;;
23812;SDS011;12087;45.190;5.688;2023-04-03T19:09:27;2.42;;;2.10;;
23812;SDS011;12087;45.190;5.688;2023-04-03T19:14:50;3.72;;;2.25;;
23812;SDS011;12087;45.190;5.688;2023-04-03T19:20:13;2.53;;;2.25;;
23812;SDS011;12087;45.190;5.688;2023-04-03T19:25:37;2.30;;;1.92;;
23812;SDS011;12087;45.190;5.688;2023-04-03T19:31:00;5.00;;;2.03;;
23812;SDS011;12087;45.190;5.688;2023-04-03T19:36:22;2.33;;;1.85;;
23812;SDS011;12087;45.190;5.688;2023-04-03T19:41:46;2.50;;;1.90;;
23812;SDS011;12087;45.190;5.688;2023-04-03T19:47:09;2.55;;;2.17;;
23812;SDS011;12087;45.190;5.688;2023-04-03T19:52:31;2.22;;;2.03;;
23812;SDS011;12087;45.190;5.688;2023-04-03T19:57:55;3.55;;;2.25;;
23812;SDS011;12087;45.190;5.688;2023-04-03T20:03:18;2.15;;;1.88;;
23812;SDS011;12087;45.190;5.688;2023-04-03T20:08:40;2.65;;;2.00;;
23812;SDS011;12087;45.190;5.688;2023-04-03T20:14:05;3.13;;;2.75;;
23812;SDS011;12087;45.190;5.688;2023-04-03T20:19:27;3.10;;;2.60;;
23812;SDS011;12087;45.190;5.688;2023-04-03T20:24:50;5.07;;;2.50;;
23812;SDS011;12087;45.190;5.688;2023-04-03T20:30:14;2.63;;;2.30;;
23812;SDS011;12087;45.190;5.688;2023-04-03T20:35:36;4.38;;;2.92;;
23812;SDS011;12087;45.190;5.688;2023-04-03T20:40:59;7.20;;;2.60;;
23812;SDS011;12087;45.190;5.688;2023-04-03T20:46:22;3.78;;;2.75;;
23812;SDS011;12087;45.190;5.688;2023-04-03T20:51:47;3.33;;;3.03;;
23812;SDS011;12087;45.190;5.688;2023-04-03T20:57:11;3.22;;;2.60;;
23812;SDS011;12087;45.190;5.688;2023-04-03T21:02:35;5.22;;;3.08;;
23812;SDS011;12087;45.190;5.688;2023-04-03T21:19:58;4.53;;;2.70;;
23812;SDS011;12087;45.190;5.688;2023-04-03T21:25:20;4.25;;;2.70;;
23812;SDS011;12087;45.190;5.688;2023-04-03T21:30:42;4.10;;;2.47;;
23812;SDS011;12087;45.190;5.688;2023-04-03T21:36:06;3.53;;;3.00;;
23812;SDS011;12087;45.190;5.688;2023-04-03T21:41:29;4.88;;;2.83;;
23812;SDS011;12087;45.190;5.688;2023-04-03T21:46:51;3.60;;;2.47;;
23812;SDS011;12087;45.190;5.688;2023-04-03T21:52:16;5.07;;;2.92;;
23812;SDS011;12087;45.190;5.688;2023-04-03T21:57:40;4.35;;;3.05;;
23812;SDS011;12087;45.190;5.688;2023-04-03T22:03:02;3.58;;;2.90;;
23812;SDS011;12087;45.190;5.688;2023-04-03T22:08:27;5.72;;;3.40;;
23812;SDS011;12087;45.190;5.688;2023-04-03T22:13:50;4.18;;;2.75;;
23812;SDS011;12087;45.190;5.688;2023-04-03T22:19:13;6.88;;;2.83;;
23812;SDS011;12087;45.190;5.688;2023-04-03T22:24:36;10.23;;;2.97;;
23812;SDS011;12087;45.190;5.688;2023-04-03T22:29:59;3.17;;;2.80;;
23812;SDS011;12087;45.190;5.688;2023-04-03T22:35:21;3.60;;;3.05;;
23812;SDS011;12087;45.190;5.688;2023-04-03T22:40:45;4.35;;;3.00;;
23812;SDS011;12087;45.190;5.688;2023-04-03T22:46:08;4.03;;;3.28;;
23812;SDS011;12087;45.190;5.688;2023-04-03T22:51:30;4.25;;;3.20;;
23812;SDS011;12087;45.190;5.688;2023-04-03T22:56:54;3.22;;;2.92;;
23812;SDS011;12087;45.190;5.688;2023-04-03T23:02:16;4.65;;;3.30;;
23812;SDS011;12087;45.190;5.688;2023-04-03T23:07:38;3.75;;;3.28;;
23812;SDS011;12087;45.190;5.688;2023-04-03T23:13:02;3.92;;;3.33;;
23812;SDS011;12087;45.190;5.688;2023-04-03T23:18:25;4.75;;;3.35;;
23812;SDS011;12087;45.190;5.688;2023-04-03T23:23:49;3.88;;;3.15;;
23812;SDS011;12087;45.190;5.688;2023-04-03T23:29:12;3.40;;;3.10;;
23812;SDS011;12087;45.190;5.688;2023-04-03T23:34:35;4.03;;;3.60;;
23812;SDS011;12087;45.190;5.688;2023-04-03T23:39:57;4.28;;;3.42;;
23812;SDS011;12087;45.190;5.688;2023-04-03T23:45:22;4.22;;;3.40;;
23812;SDS011;12087;45.190;5.688;2023-04-03T23:50:44;4.55;;;3.25;;
23812;SDS011;12087;45.190;5.688;2023-04-03T23:56:07;4.55;;;3.70;;
